createdAt,value
2024-01-07T00:00:03.990Z,3.10
2024-01-07T00:01:04.157Z,3.16
2024-01-07T00:02:03.997Z,3.18
2024-01-07T00:03:03.980Z,3.20
2024-01-07T00:04:03.977Z,3.16
2024-01-07T00:05:03.998Z,3.10
2024-01-07T00:06:03.940Z,3.05
2024-01-07T00:07:03.992Z,3.10
2024-01-07T00:08:03.900Z,3.13
2024-01-07T00:09:03.904Z,3.13
2024-01-07T00:10:03.930Z,3.15
2024-01-07T00:11:03.890Z,3.21
2024-01-07T00:12:03.835Z,3.23
2024-01-07T00:13:03.949Z,3.25
2024-01-07T00:14:03.799Z,3.28
2024-01-07T00:15:03.841Z,3.27
2024-01-07T00:16:03.827Z,3.27
2024-01-07T00:17:03.780Z,3.25
2024-01-07T00:18:03.828Z,3.21
2024-01-07T00:19:03.902Z,3.16
2024-01-07T00:20:03.747Z,3.20
2024-01-07T00:21:03.753Z,3.15
2024-01-07T00:22:03.732Z,3.18
2024-01-07T00:23:03.709Z,3.16
2024-01-07T00:24:03.685Z,3.12
2024-01-07T00:25:03.734Z,3.09
2024-01-07T00:26:03.651Z,3.07
2024-01-07T00:27:03.642Z,3.06
2024-01-07T00:28:03.782Z,3.03
2024-01-07T00:29:03.655Z,3.07
2024-01-07T00:30:03.683Z,3.07
2024-01-07T00:31:03.738Z,3.10
2024-01-07T00:32:03.563Z,3.12
2024-01-07T00:33:03.606Z,3.12
2024-01-07T00:34:03.622Z,3.15
2024-01-07T00:35:03.661Z,3.13
2024-01-07T00:36:03.527Z,3.12
2024-01-07T00:37:03.592Z,3.13
2024-01-07T00:38:03.505Z,3.13
2024-01-07T00:39:03.484Z,3.15
2024-01-07T00:40:03.592Z,3.20
2024-01-07T00:41:03.523Z,3.16
2024-01-07T00:42:03.447Z,3.16
2024-01-07T00:43:03.586Z,3.16
2024-01-07T00:44:03.435Z,3.16
2024-01-07T00:45:03.395Z,3.15
2024-01-07T00:46:03.444Z,3.15
2024-01-07T00:47:03.390Z,3.15
2024-01-07T00:48:03.504Z,3.18
2024-01-07T00:49:03.513Z,3.13
2024-01-07T00:50:03.344Z,3.13
2024-01-07T00:51:03.396Z,3.09
2024-01-07T00:52:03.372Z,3.09
2024-01-07T00:53:03.297Z,3.12
2024-01-07T00:54:03.308Z,3.13
2024-01-07T00:55:03.348Z,3.13
2024-01-07T00:56:03.248Z,3.10
2024-01-07T00:57:03.545Z,3.03
2024-01-07T00:58:03.332Z,3.06
2024-01-07T00:59:03.218Z,3.09
2024-01-07T01:00:03.206Z,3.15
2024-01-07T01:01:03.315Z,3.13
2024-01-07T01:02:03.218Z,3.13
2024-01-07T01:03:03.175Z,3.15
2024-01-07T01:04:03.217Z,3.18
2024-01-07T01:05:03.249Z,3.18
2024-01-07T01:06:03.154Z,3.24
2024-01-07T01:07:03.172Z,3.23
2024-01-07T01:08:03.097Z,3.24
2024-01-07T01:09:03.100Z,3.25
2024-01-07T01:10:03.188Z,3.24
2024-01-07T01:11:03.113Z,3.21
2024-01-07T01:12:03.090Z,3.21
2024-01-07T01:13:03.100Z,3.24
2024-01-07T01:14:03.021Z,3.20
2024-01-07T01:15:03.018Z,3.20
2024-01-07T01:16:03.018Z,3.20
2024-01-07T01:17:03.006Z,3.20
2024-01-07T01:18:03.099Z,3.20
2024-01-07T01:19:03.141Z,3.13
2024-01-07T01:20:02.948Z,3.15
2024-01-07T01:21:02.951Z,3.09
2024-01-07T01:22:03.079Z,3.12
2024-01-07T01:23:02.919Z,3.10
2024-01-07T01:24:02.944Z,3.12
2024-01-07T01:25:02.957Z,3.13
2024-01-07T01:26:02.893Z,3.15
2024-01-07T01:27:02.912Z,3.13
2024-01-07T01:28:02.957Z,3.16
2024-01-07T01:29:02.904Z,3.18
2024-01-07T01:30:02.797Z,3.20
2024-01-07T01:31:02.858Z,3.16
2024-01-07T01:32:02.823Z,3.24
2024-01-07T01:33:02.877Z,3.25
2024-01-07T01:34:02.913Z,3.25
2024-01-07T01:35:02.807Z,3.27
2024-01-07T01:36:02.732Z,3.27
2024-01-07T01:37:02.763Z,3.24
2024-01-07T01:38:02.720Z,3.21
2024-01-07T01:39:02.727Z,3.20
2024-01-07T01:40:02.742Z,3.18
2024-01-07T01:41:02.663Z,3.20
2024-01-07T01:42:02.660Z,3.20
2024-01-07T01:43:02.780Z,3.23
2024-01-07T01:44:02.639Z,3.16
2024-01-07T01:45:02.781Z,3.15
2024-01-07T01:46:02.703Z,3.16
2024-01-07T01:47:02.603Z,3.16
2024-01-07T01:48:02.729Z,3.15
2024-01-07T01:49:02.641Z,3.16
2024-01-07T01:50:02.578Z,3.16
2024-01-07T01:51:02.536Z,3.16
2024-01-07T01:52:02.587Z,3.16
2024-01-07T01:53:02.527Z,3.15
2024-01-07T01:54:02.483Z,3.13
2024-01-07T01:55:02.645Z,3.15
2024-01-07T01:56:02.461Z,3.13
2024-01-07T01:57:02.476Z,3.12
2024-01-07T01:58:02.553Z,3.13
2024-01-07T01:59:02.430Z,3.12
2024-01-07T02:00:02.417Z,3.12
2024-01-07T02:01:02.514Z,3.07
2024-01-07T02:02:02.478Z,3.07
2024-01-07T02:03:02.373Z,3.06
2024-01-07T02:04:02.398Z,3.06
2024-01-07T02:05:02.411Z,3.05
2024-01-07T02:06:02.342Z,3.06
2024-01-07T02:07:02.396Z,3.10
2024-01-07T02:08:02.296Z,3.05
2024-01-07T02:09:02.282Z,3.05
2024-01-07T02:10:02.427Z,2.98
2024-01-07T02:11:02.274Z,3.02
2024-01-07T02:12:02.250Z,3.02
2024-01-07T02:13:02.299Z,2.97
2024-01-07T02:14:02.250Z,2.97
2024-01-07T02:15:02.250Z,3.02
2024-01-07T02:16:02.318Z,3.02
2024-01-07T02:17:02.198Z,3.00
2024-01-07T02:18:02.239Z,3.02
2024-01-07T02:19:02.209Z,3.05
2024-01-07T02:20:02.275Z,3.03
2024-01-07T02:21:02.140Z,3.05
2024-01-07T02:22:02.195Z,3.12
2024-01-07T02:23:02.094Z,3.06
2024-01-07T02:24:02.094Z,3.02
2024-01-07T02:25:02.179Z,2.95
2024-01-07T02:26:02.089Z,2.98
2024-01-07T02:27:02.056Z,3.00
2024-01-07T02:28:02.100Z,3.00
2024-01-07T02:29:02.034Z,2.94
2024-01-07T02:30:02.039Z,2.95
2024-01-07T02:31:02.116Z,2.95
2024-01-07T02:32:01.988Z,2.89
2024-01-07T02:33:02.018Z,2.92
2024-01-07T02:34:02.036Z,2.92
2024-01-07T02:35:01.949Z,2.92
2024-01-07T02:36:01.952Z,2.92
2024-01-07T02:37:02.014Z,2.97
2024-01-07T02:38:01.909Z,3.02
2024-01-07T02:39:01.923Z,2.97
2024-01-07T02:40:02.358Z,2.95
2024-01-07T02:41:01.877Z,2.94
2024-01-07T02:42:01.856Z,2.89
2024-01-07T02:43:01.876Z,2.94
2024-01-07T02:44:01.845Z,2.91
2024-01-07T02:45:01.823Z,2.89
2024-01-07T02:46:01.885Z,2.95
2024-01-07T02:47:01.785Z,2.95
2024-01-07T02:48:01.820Z,2.94
2024-01-07T02:49:02.251Z,2.97
2024-01-07T02:50:01.771Z,2.92
2024-01-07T02:51:01.758Z,2.91
2024-01-07T02:52:01.759Z,2.89
2024-01-07T02:53:01.804Z,2.87
2024-01-07T02:54:01.696Z,2.92
2024-01-07T02:55:01.675Z,2.97
2024-01-07T02:56:01.693Z,2.91
2024-01-07T02:57:01.855Z,2.94
2024-01-07T02:58:01.747Z,2.97
2024-01-07T02:59:01.644Z,2.97
2024-01-07T03:00:01.679Z,2.98
2024-01-07T03:01:01.708Z,2.97
2024-01-07T03:02:01.692Z,2.95
2024-01-07T03:03:01.623Z,2.95
2024-01-07T03:04:01.623Z,2.89
2024-01-07T03:05:01.701Z,2.85
2024-01-07T03:06:01.588Z,2.88
2024-01-07T03:07:01.559Z,2.81
2024-01-07T03:08:01.585Z,2.82
2024-01-07T03:09:01.598Z,2.74
2024-01-07T03:10:01.517Z,2.76
2024-01-07T03:11:01.498Z,2.76
2024-01-07T03:12:01.490Z,2.81
2024-01-07T03:13:01.523Z,2.81
2024-01-07T03:14:01.443Z,2.84
2024-01-07T03:15:01.425Z,2.84
2024-01-07T03:16:01.448Z,2.81
2024-01-07T03:17:01.415Z,2.79
2024-01-07T03:18:01.436Z,2.81
2024-01-07T03:19:01.391Z,2.79
2024-01-07T03:20:01.355Z,2.79
2024-01-07T03:21:01.440Z,2.74
2024-01-07T03:22:01.403Z,2.73
2024-01-07T03:23:01.321Z,2.73
2024-01-07T03:24:01.321Z,2.73
2024-01-07T03:25:01.343Z,2.71
2024-01-07T03:26:01.312Z,2.73
2024-01-07T03:27:01.271Z,2.71
2024-01-07T03:28:01.270Z,2.79
2024-01-07T03:29:01.235Z,2.76
2024-01-07T03:30:01.263Z,2.84
2024-01-07T03:31:01.314Z,2.82
2024-01-07T03:32:01.214Z,2.79
2024-01-07T03:33:01.260Z,2.82
2024-01-07T03:34:01.545Z,2.85
2024-01-07T03:35:01.232Z,2.89
2024-01-07T03:36:01.152Z,2.89
2024-01-07T03:37:01.188Z,2.87
2024-01-07T03:38:01.137Z,2.77
2024-01-07T03:39:01.139Z,2.73
2024-01-07T03:40:01.138Z,2.71
2024-01-07T03:41:01.088Z,2.70
2024-01-07T03:42:01.092Z,2.70
2024-01-07T03:43:01.078Z,2.63
2024-01-07T03:44:01.121Z,2.61
2024-01-07T03:45:01.033Z,2.56
2024-01-07T03:46:01.101Z,2.55
2024-01-07T03:47:01.038Z,2.59
2024-01-07T03:48:01.110Z,2.59
2024-01-07T03:49:01.168Z,2.61
2024-01-07T03:50:00.987Z,2.59
2024-01-07T03:51:00.958Z,2.59
2024-01-07T03:52:00.992Z,2.66
2024-01-07T03:53:00.960Z,2.61
2024-01-07T03:54:00.924Z,2.64
2024-01-07T03:55:00.973Z,2.67
2024-01-07T03:56:00.896Z,2.71
2024-01-07T03:57:00.878Z,2.74
2024-01-07T03:58:00.908Z,2.71
2024-01-07T03:59:00.851Z,2.73
2024-01-07T04:00:00.867Z,2.74
2024-01-07T04:01:00.957Z,2.74
2024-01-07T04:02:00.915Z,2.71
2024-01-07T04:03:00.848Z,2.71
2024-01-07T04:04:00.875Z,2.71
2024-01-07T04:05:00.781Z,2.76
2024-01-07T04:06:00.825Z,2.74
2024-01-07T04:07:00.829Z,2.70
2024-01-07T04:08:00.735Z,2.67
2024-01-07T04:09:00.726Z,2.70
2024-01-07T04:10:00.785Z,2.69
2024-01-07T04:11:00.709Z,2.64
2024-01-07T04:12:00.699Z,2.70
2024-01-07T04:13:00.730Z,2.63
2024-01-07T04:14:00.666Z,2.66
2024-01-07T04:15:00.630Z,2.67
2024-01-07T04:16:00.690Z,2.64
2024-01-07T04:17:00.640Z,2.63
2024-01-07T04:18:00.635Z,2.52
2024-01-07T04:19:00.644Z,2.51
2024-01-07T04:20:00.683Z,2.49
2024-01-07T04:21:00.563Z,2.55
2024-01-07T04:22:00.604Z,2.55
2024-01-07T04:23:00.540Z,2.53
2024-01-07T04:24:00.517Z,2.59
2024-01-07T04:25:00.885Z,2.59
2024-01-07T04:26:00.523Z,2.61
2024-01-07T04:27:00.485Z,2.63
2024-01-07T04:28:00.500Z,2.63
2024-01-07T04:29:00.476Z,2.64
2024-01-07T04:30:00.457Z,2.58
2024-01-07T04:31:00.478Z,2.56
2024-01-07T04:32:00.419Z,2.56
2024-01-07T04:33:00.419Z,2.51
2024-01-07T04:34:00.464Z,2.58
2024-01-07T04:35:00.532Z,2.58
2024-01-07T04:36:00.365Z,2.59
2024-01-07T04:37:00.405Z,2.58
2024-01-07T04:38:00.361Z,2.55
2024-01-07T04:39:00.320Z,2.49
2024-01-07T04:40:00.404Z,2.45
2024-01-07T04:41:00.288Z,2.49
2024-01-07T04:42:00.281Z,2.49
2024-01-07T04:43:00.335Z,2.48
2024-01-07T04:44:00.262Z,2.46
2024-01-07T04:45:00.301Z,2.46
2024-01-07T04:46:00.300Z,2.46
2024-01-07T04:47:00.211Z,2.48
2024-01-07T04:48:00.324Z,2.45
2024-01-07T04:49:00.346Z,2.46
2024-01-07T04:50:00.318Z,2.49
2024-01-07T04:51:00.164Z,2.51
2024-01-07T04:52:00.228Z,2.51
2024-01-07T04:53:00.158Z,2.51
2024-01-07T04:54:00.161Z,2.48
2024-01-07T04:55:00.266Z,2.48
2024-01-07T04:56:00.132Z,2.46
2024-01-07T04:57:00.080Z,2.46
2024-01-07T04:58:00.098Z,2.45
2024-01-07T04:59:00.055Z,2.49
2024-01-07T05:00:00.047Z,2.48
2024-01-07T05:01:00.112Z,2.48
2024-01-07T05:02:00.032Z,2.44
2024-01-07T05:03:00.051Z,2.38
2024-01-07T05:04:00.211Z,2.44
2024-01-07T05:04:59.965Z,2.44
2024-01-07T05:05:59.993Z,2.44
2024-01-07T05:07:00.042Z,2.40
2024-01-07T05:07:59.959Z,2.37
2024-01-07T05:08:59.920Z,2.33
2024-01-07T05:09:59.958Z,2.33
2024-01-07T05:10:59.897Z,2.28
2024-01-07T05:11:59.907Z,2.27
2024-01-07T05:12:59.906Z,2.27
2024-01-07T05:13:59.852Z,2.27
2024-01-07T05:14:59.842Z,2.28
2024-01-07T05:15:59.850Z,2.23
2024-01-07T05:16:59.831Z,2.22
2024-01-07T05:17:59.849Z,2.23
2024-01-07T05:18:59.894Z,2.23
2024-01-07T05:20:00.025Z,2.20
2024-01-07T05:20:59.771Z,2.22
2024-01-07T05:21:59.808Z,2.27
2024-01-07T05:22:59.737Z,2.26
2024-01-07T05:23:59.720Z,2.20
2024-01-07T05:24:59.772Z,2.22
2024-01-07T05:25:59.721Z,2.23
2024-01-07T05:26:59.685Z,2.26
2024-01-07T05:27:59.669Z,2.26
2024-01-07T05:28:59.669Z,2.28
2024-01-07T05:29:59.675Z,2.31
2024-01-07T05:30:59.743Z,2.28
2024-01-07T05:31:59.641Z,2.31
2024-01-07T05:32:59.690Z,2.30
2024-01-07T05:33:59.697Z,2.31
2024-01-07T05:34:59.671Z,2.31
2024-01-07T05:35:59.600Z,2.31
2024-01-07T05:36:59.596Z,2.28
2024-01-07T05:37:59.555Z,2.27
2024-01-07T05:38:59.524Z,2.23
2024-01-07T05:39:59.553Z,2.23
2024-01-07T05:40:59.490Z,2.27
2024-01-07T05:41:59.525Z,2.23
2024-01-07T05:42:59.482Z,2.22
2024-01-07T05:43:59.452Z,2.19
2024-01-07T05:44:59.446Z,2.19
2024-01-07T05:45:59.499Z,2.19
2024-01-07T05:46:59.405Z,2.17
2024-01-07T05:47:59.424Z,2.15
2024-01-07T05:48:59.462Z,2.15
2024-01-07T05:49:59.437Z,2.15
2024-01-07T05:50:59.347Z,2.19
2024-01-07T05:51:59.406Z,2.20
2024-01-07T05:52:59.321Z,2.22
2024-01-07T05:53:59.326Z,2.23
2024-01-07T05:54:59.340Z,2.30
2024-01-07T05:55:59.306Z,2.27
2024-01-07T05:56:59.289Z,2.26
2024-01-07T05:57:59.306Z,2.33
2024-01-07T05:58:59.257Z,2.30
2024-01-07T05:59:59.242Z,2.28
2024-01-07T06:00:59.258Z,2.26
2024-01-07T06:01:59.295Z,2.23
2024-01-07T06:02:59.235Z,2.26
2024-01-07T06:03:59.339Z,2.31
2024-01-07T06:04:59.248Z,2.30
2024-01-07T06:05:59.202Z,2.27
2024-01-07T06:06:59.192Z,2.27
2024-01-07T06:07:59.277Z,2.30
2024-01-07T06:08:59.110Z,2.27
2024-01-07T06:09:59.169Z,2.27
2024-01-07T06:10:59.155Z,2.27
2024-01-07T06:11:59.082Z,2.27
2024-01-07T06:12:59.124Z,2.26
2024-01-07T06:13:59.047Z,2.23
2024-01-07T06:14:59.024Z,2.22
2024-01-07T06:15:59.073Z,2.23
2024-01-07T06:16:59.045Z,2.20
2024-01-07T06:17:59.065Z,2.22
2024-01-07T06:18:59.068Z,2.23
2024-01-07T06:19:59.021Z,2.26
2024-01-07T06:20:58.969Z,2.26
2024-01-07T06:21:59.020Z,2.19
2024-01-07T06:22:58.942Z,2.20
2024-01-07T06:23:58.925Z,2.15
2024-01-07T06:24:58.901Z,2.15
2024-01-07T06:25:58.887Z,2.13
2024-01-07T06:26:58.888Z,2.12
2024-01-07T06:27:58.907Z,2.12
2024-01-07T06:28:58.852Z,2.13
2024-01-07T06:29:58.879Z,2.09
2024-01-07T06:31:00.315Z,2.04
2024-01-07T06:31:58.992Z,2.06
2024-01-07T06:32:58.892Z,2.02
2024-01-07T06:33:58.965Z,2.02
2024-01-07T06:34:58.768Z,2.06
2024-01-07T06:35:58.762Z,2.06
2024-01-07T06:36:58.791Z,2.08
2024-01-07T06:37:58.726Z,2.06
2024-01-07T06:38:58.706Z,2.06
2024-01-07T06:39:58.765Z,2.08
2024-01-07T06:41:00.645Z,2.04
2024-01-07T06:41:58.674Z,2.06
2024-01-07T06:42:58.755Z,2.09
2024-01-07T06:43:58.650Z,2.09
2024-01-07T06:44:58.630Z,2.10
2024-01-07T06:45:58.679Z,2.10
2024-01-07T06:46:58.626Z,2.10
2024-01-07T06:47:58.677Z,2.08
2024-01-07T06:48:58.650Z,2.10
2024-01-07T06:49:58.606Z,2.09
2024-01-07T06:50:58.586Z,2.08
2024-01-07T06:51:58.546Z,2.13
2024-01-07T06:52:58.525Z,2.10
2024-01-07T06:53:58.512Z,2.12
2024-01-07T06:54:58.509Z,2.10
2024-01-07T06:55:58.474Z,2.04
2024-01-07T06:56:58.478Z,2.02
2024-01-07T06:57:58.482Z,2.01
2024-01-07T06:58:58.441Z,2.02
2024-01-07T06:59:58.458Z,2.04
2024-01-07T07:00:58.525Z,2.02
2024-01-07T07:01:58.500Z,2.04
2024-01-07T07:02:58.391Z,2.08
2024-01-07T07:03:58.469Z,2.08
2024-01-07T07:04:58.461Z,2.09
2024-01-07T07:05:58.432Z,2.09
2024-01-07T07:06:58.400Z,2.06
2024-01-07T07:07:58.328Z,2.01
2024-01-07T07:08:58.356Z,1.99
2024-01-07T07:09:58.331Z,2.01
2024-01-07T07:10:58.291Z,2.06
2024-01-07T07:11:58.264Z,2.06
2024-01-07T07:12:58.277Z,2.10
2024-01-07T07:13:58.278Z,2.08
2024-01-07T07:14:58.242Z,2.10
2024-01-07T07:15:58.312Z,2.10
2024-01-07T07:16:58.214Z,2.15
2024-01-07T07:17:58.268Z,2.08
2024-01-07T07:18:58.239Z,2.08
2024-01-07T07:19:58.491Z,2.10
2024-01-07T07:20:58.169Z,2.08
2024-01-07T07:21:58.187Z,2.12
2024-01-07T07:22:58.167Z,2.09
2024-01-07T07:23:58.125Z,2.12
2024-01-07T07:25:00.283Z,2.10
2024-01-07T07:25:58.102Z,2.10
2024-01-07T07:26:58.081Z,2.15
2024-01-07T07:27:58.180Z,2.16
2024-01-07T07:28:58.060Z,2.17
2024-01-07T07:29:58.037Z,2.17
2024-01-07T07:30:58.066Z,2.20
2024-01-07T07:31:58.116Z,2.20
2024-01-07T07:32:58.081Z,2.17
2024-01-07T07:33:58.061Z,2.19
2024-01-07T07:34:58.050Z,2.19
2024-01-07T07:35:57.952Z,2.20
2024-01-07T07:36:58.187Z,2.19
2024-01-07T07:37:57.989Z,2.20
2024-01-07T07:38:57.903Z,2.15
2024-01-07T07:39:57.893Z,2.15
2024-01-07T07:40:57.882Z,2.10
2024-01-07T07:41:57.872Z,2.09
2024-01-07T07:42:57.875Z,2.04
2024-01-07T07:43:57.824Z,2.01
2024-01-07T07:44:57.853Z,1.99
2024-01-07T07:45:57.844Z,1.99
2024-01-07T07:46:57.810Z,1.99
2024-01-07T07:47:57.819Z,1.97
2024-01-07T07:48:57.834Z,1.94
2024-01-07T07:49:57.893Z,1.94
2024-01-07T07:50:57.753Z,1.97
2024-01-07T07:51:57.755Z,1.93
2024-01-07T07:52:57.727Z,1.91
2024-01-07T07:53:57.703Z,1.94
2024-01-07T07:54:57.725Z,1.91
2024-01-07T07:55:57.677Z,1.93
2024-01-07T07:56:57.656Z,1.90
2024-01-07T07:57:57.714Z,1.90
2024-01-07T07:58:57.640Z,1.90
2024-01-07T07:59:59.091Z,1.87
2024-01-07T08:00:57.722Z,1.83
2024-01-07T08:01:57.693Z,1.82
2024-01-07T08:02:57.622Z,1.82
2024-01-07T08:03:57.599Z,1.87
2024-01-07T08:04:57.603Z,1.90
2024-01-07T08:05:57.592Z,1.87
2024-01-07T08:06:57.722Z,1.85
2024-01-07T08:07:57.532Z,1.89
2024-01-07T08:08:57.602Z,1.90
2024-01-07T08:09:57.520Z,1.93
2024-01-07T08:10:57.471Z,1.91
2024-01-07T08:11:57.454Z,1.89
2024-01-07T08:12:57.506Z,1.82
2024-01-07T08:13:57.440Z,1.83
2024-01-07T08:14:57.451Z,1.82
2024-01-07T08:15:57.486Z,1.82
2024-01-07T08:16:57.389Z,1.89
2024-01-07T08:17:57.421Z,1.90
2024-01-07T08:18:57.502Z,1.99
2024-01-07T08:19:57.436Z,1.97
2024-01-07T08:20:57.336Z,1.97
2024-01-07T08:21:57.344Z,1.97
2024-01-07T08:22:57.357Z,1.99
2024-01-07T08:23:57.332Z,1.91
2024-01-07T08:24:57.325Z,1.97
2024-01-07T08:25:57.258Z,1.93
2024-01-07T08:26:57.245Z,1.91
2024-01-07T08:27:57.362Z,1.93
2024-01-07T08:28:57.226Z,1.91
2024-01-07T08:29:57.222Z,1.91
2024-01-07T08:30:57.327Z,1.87
2024-01-07T08:31:57.283Z,1.90
2024-01-07T08:32:57.328Z,1.91
2024-01-07T08:33:57.203Z,1.91
2024-01-07T08:34:57.200Z,1.91
2024-01-07T08:35:57.126Z,1.93
2024-01-07T08:36:57.232Z,1.91
2024-01-07T08:37:57.108Z,1.91
2024-01-07T08:38:57.097Z,1.87
2024-01-07T08:39:57.227Z,1.93
2024-01-07T08:40:57.069Z,1.99
2024-01-07T08:41:57.065Z,2.02
2024-01-07T08:42:57.092Z,1.98
2024-01-07T08:43:57.018Z,1.97
2024-01-07T08:44:57.009Z,1.90
2024-01-07T08:45:56.995Z,1.87
2024-01-07T08:46:57.012Z,1.85
2024-01-07T08:47:57.018Z,1.87
2024-01-07T08:48:57.061Z,1.83
2024-01-07T08:49:56.978Z,1.80
2024-01-07T08:50:56.944Z,1.82
2024-01-07T08:51:56.983Z,1.82
2024-01-07T08:52:56.959Z,1.82
2024-01-07T08:53:56.897Z,1.78
2024-01-07T08:54:56.954Z,1.75
2024-01-07T08:55:56.908Z,1.75
2024-01-07T08:56:56.927Z,1.75
2024-01-07T08:57:56.907Z,1.72
2024-01-07T08:58:56.858Z,1.75
2024-01-07T08:59:56.825Z,1.73
2024-01-07T09:00:56.926Z,1.71
2024-01-07T09:01:57.032Z,1.72
2024-01-07T09:02:56.823Z,1.79
2024-01-07T09:03:56.822Z,1.80
2024-01-07T09:04:56.760Z,1.82
2024-01-07T09:05:56.852Z,1.83
2024-01-07T09:06:56.824Z,1.83
2024-01-07T09:07:56.726Z,1.80
2024-01-07T09:08:56.717Z,1.79
2024-01-07T09:09:56.734Z,1.76
2024-01-07T09:10:56.724Z,1.78
2024-01-07T09:11:56.690Z,1.82
2024-01-07T09:12:56.738Z,1.80
2024-01-07T09:13:56.638Z,1.87
2024-01-07T09:14:56.655Z,1.93
2024-01-07T09:15:56.638Z,1.87
2024-01-07T09:16:56.636Z,1.85
2024-01-07T09:17:56.661Z,1.82
2024-01-07T09:18:56.690Z,1.75
2024-01-07T09:19:56.678Z,1.75
2024-01-07T09:20:56.550Z,1.71
2024-01-07T09:21:56.568Z,1.75
2024-01-07T09:22:56.531Z,1.73
2024-01-07T09:23:56.523Z,1.72
2024-01-07T09:24:56.554Z,1.72
2024-01-07T09:25:56.494Z,1.73
2024-01-07T09:26:56.481Z,1.76
2024-01-07T09:27:56.493Z,1.75
2024-01-07T09:28:56.492Z,1.75
2024-01-07T09:29:56.429Z,1.79
2024-01-07T09:30:56.497Z,1.73
2024-01-07T09:31:56.465Z,1.75
2024-01-07T09:32:56.432Z,1.73
2024-01-07T09:33:56.410Z,1.72
2024-01-07T09:34:56.718Z,1.72
2024-01-07T09:36:02.569Z,1.72
2024-01-07T09:36:57.365Z,1.72
2024-01-07T09:37:56.371Z,1.73
2024-01-07T09:38:56.423Z,1.73
2024-01-07T09:39:56.376Z,1.76
2024-01-07T09:40:56.368Z,1.75
2024-01-07T09:41:56.265Z,1.78
2024-01-07T09:42:56.299Z,1.76
2024-01-07T09:43:56.230Z,1.76
2024-01-07T09:44:56.227Z,1.79
2024-01-07T09:45:56.220Z,1.80
2024-01-07T09:46:56.200Z,1.78
2024-01-07T09:47:56.237Z,1.76
2024-01-07T09:48:56.248Z,1.79
2024-01-07T09:49:56.184Z,1.80
2024-01-07T09:50:56.141Z,1.78
2024-01-07T09:51:56.150Z,1.76
2024-01-07T09:52:56.152Z,1.75
2024-01-07T09:53:56.105Z,1.76
2024-01-07T09:54:56.135Z,1.78
2024-01-07T09:55:56.069Z,1.83
2024-01-07T09:56:56.079Z,1.83
2024-01-07T09:57:56.106Z,1.78
2024-01-07T09:58:56.128Z,1.78
2024-01-07T09:59:56.014Z,1.75
2024-01-07T10:00:56.134Z,1.75
2024-01-07T10:01:56.786Z,1.72
2024-01-07T10:02:55.988Z,1.69
2024-01-07T10:03:56.049Z,1.65
2024-01-07T10:04:56.047Z,1.65
2024-01-07T10:05:55.988Z,1.68
2024-01-07T10:06:56.009Z,1.64
2024-01-07T10:07:55.908Z,1.69
2024-01-07T10:08:55.928Z,1.69
2024-01-07T10:09:55.932Z,1.64
2024-01-07T10:10:55.926Z,1.65
2024-01-07T10:11:55.878Z,1.62
2024-01-07T10:12:55.862Z,1.64
2024-01-07T10:13:55.837Z,1.65
2024-01-07T10:14:55.839Z,1.69
2024-01-07T10:15:55.900Z,1.65
2024-01-07T10:16:55.800Z,1.64
2024-01-07T10:17:55.861Z,1.65
2024-01-07T10:18:55.971Z,1.62
2024-01-07T10:19:55.903Z,1.62
2024-01-07T10:20:55.761Z,1.64
2024-01-07T10:21:55.751Z,1.68
2024-01-07T10:22:55.716Z,1.65
2024-01-07T10:23:55.704Z,1.69
2024-01-07T10:24:55.768Z,1.71
2024-01-07T10:25:55.674Z,1.69
2024-01-07T10:26:55.665Z,1.64
2024-01-07T10:27:55.654Z,1.64
2024-01-07T10:28:55.696Z,1.61
2024-01-07T10:29:55.634Z,1.61
2024-01-07T10:30:55.709Z,1.64
2024-01-07T10:31:55.729Z,1.65
2024-01-07T10:32:55.593Z,1.65
2024-01-07T10:33:55.694Z,1.65
2024-01-07T10:34:55.825Z,1.68
2024-01-07T10:35:55.539Z,1.72
2024-01-07T10:36:55.583Z,1.71
2024-01-07T10:37:55.522Z,1.68
2024-01-07T10:38:55.513Z,1.68
2024-01-07T10:39:55.543Z,1.65
2024-01-07T10:40:55.469Z,1.68
2024-01-07T10:41:55.464Z,1.71
2024-01-07T10:42:55.460Z,1.71
2024-01-07T10:43:55.504Z,1.73
2024-01-07T10:44:55.417Z,1.72
2024-01-07T10:45:55.434Z,1.73
2024-01-07T10:46:55.416Z,1.69
2024-01-07T10:47:55.461Z,1.71
2024-01-07T10:48:55.458Z,1.69
2024-01-07T10:49:56.884Z,1.72
2024-01-07T10:50:55.336Z,1.73
2024-01-07T10:51:55.347Z,1.68
2024-01-07T10:52:55.338Z,1.65
2024-01-07T10:53:55.320Z,1.65
2024-01-07T10:54:55.343Z,1.62
2024-01-07T10:55:57.652Z,1.55
2024-01-07T10:56:55.276Z,1.55
2024-01-07T10:57:55.309Z,1.58
2024-01-07T10:58:55.239Z,1.54
2024-01-07T10:59:55.265Z,1.58
2024-01-07T11:00:55.267Z,1.61
2024-01-07T11:01:57.432Z,1.61
2024-01-07T11:02:55.195Z,1.62
2024-01-07T11:03:55.268Z,1.62
2024-01-07T11:04:55.214Z,1.61
2024-01-07T11:05:55.258Z,1.62
2024-01-07T11:06:55.176Z,1.61
2024-01-07T11:07:55.125Z,1.62
2024-01-07T11:08:55.101Z,1.60
2024-01-07T11:09:55.187Z,1.61
2024-01-07T11:10:55.133Z,1.57
2024-01-07T11:11:55.110Z,1.60
2024-01-07T11:12:55.112Z,1.62
2024-01-07T11:13:57.930Z,1.65
2024-01-07T11:14:55.018Z,1.62
2024-01-07T11:15:55.084Z,1.65
2024-01-07T11:16:55.004Z,1.68
2024-01-07T11:17:55.029Z,1.72
2024-01-07T11:18:55.032Z,1.69
2024-01-07T11:19:57.261Z,1.71
2024-01-07T11:20:54.951Z,1.69
2024-01-07T11:21:54.948Z,1.65
2024-01-07T11:22:54.904Z,1.64
2024-01-07T11:23:54.907Z,1.61
2024-01-07T11:24:54.921Z,1.62
2024-01-07T11:25:54.908Z,1.65
2024-01-07T11:26:54.858Z,1.69
2024-01-07T11:27:54.905Z,1.73
2024-01-07T11:28:54.830Z,1.72
2024-01-07T11:29:54.836Z,1.72
2024-01-07T11:30:54.891Z,1.76
2024-01-07T11:31:54.991Z,1.78
2024-01-07T11:32:54.806Z,1.69
2024-01-07T11:33:54.876Z,1.68
2024-01-07T11:34:55.101Z,1.62
2024-01-07T11:35:54.761Z,1.58
2024-01-07T11:36:54.778Z,1.57
2024-01-07T11:37:54.714Z,1.55
2024-01-07T11:38:55.250Z,1.57
2024-01-07T11:39:54.722Z,1.58
2024-01-07T11:40:54.669Z,1.57
2024-01-07T11:41:54.662Z,1.52
2024-01-07T11:42:54.774Z,1.50
2024-01-07T11:43:54.656Z,1.50
2024-01-07T11:44:54.627Z,1.52
2024-01-07T11:45:54.664Z,1.54
2024-01-07T11:46:54.591Z,1.47
2024-01-07T11:47:54.635Z,1.52
2024-01-07T11:48:54.686Z,1.51
2024-01-07T11:49:54.657Z,1.52
2024-01-07T11:50:56.411Z,1.55
2024-01-07T11:51:54.551Z,1.58
2024-01-07T11:52:54.517Z,1.61
2024-01-07T11:53:54.630Z,1.64
2024-01-07T11:54:54.552Z,1.65
2024-01-07T11:55:54.510Z,1.64
2024-01-07T11:56:54.456Z,1.64
2024-01-07T11:57:54.536Z,1.62
2024-01-07T11:58:54.476Z,1.62
2024-01-07T11:59:54.450Z,1.61
2024-01-07T12:00:54.498Z,1.54
2024-01-07T12:01:54.540Z,1.54
2024-01-07T12:02:54.380Z,1.55
2024-01-07T12:03:54.464Z,1.51
2024-01-07T12:04:54.369Z,1.51
2024-01-07T12:05:54.368Z,1.47
2024-01-07T12:06:54.348Z,1.46
2024-01-07T12:07:54.346Z,1.44
2024-01-07T12:08:54.327Z,1.43
2024-01-07T12:09:54.314Z,1.47
2024-01-07T12:10:54.283Z,1.50
2024-01-07T12:11:54.263Z,1.50
2024-01-07T12:12:54.374Z,1.50
2024-01-07T12:13:54.254Z,1.51
2024-01-07T12:14:54.223Z,1.51
2024-01-07T12:15:54.257Z,1.51
2024-01-07T12:16:54.205Z,1.52
2024-01-07T12:17:54.277Z,1.52
2024-01-07T12:18:54.259Z,1.54
2024-01-07T12:19:54.205Z,1.54
2024-01-07T12:20:54.144Z,1.54
2024-01-07T12:21:54.187Z,1.51
2024-01-07T12:22:54.145Z,1.50
2024-01-07T12:23:54.138Z,1.51
2024-01-07T12:24:54.128Z,1.51
2024-01-07T12:25:54.119Z,1.50
2024-01-07T12:26:54.089Z,1.47
2024-01-07T12:27:54.197Z,1.46
2024-01-07T12:28:54.062Z,1.47
2024-01-07T12:29:54.035Z,1.50
2024-01-07T12:30:54.102Z,1.52
2024-01-07T12:31:54.217Z,1.54
2024-01-07T12:32:54.066Z,1.55
2024-01-07T12:33:54.184Z,1.58
2024-01-07T12:34:54.033Z,1.58
2024-01-07T12:35:53.995Z,1.64
2024-01-07T12:36:54.046Z,1.65
2024-01-07T12:37:53.941Z,1.62
2024-01-07T12:38:53.934Z,1.61
2024-01-07T12:39:53.926Z,1.61
2024-01-07T12:40:53.942Z,1.62
2024-01-07T12:41:53.895Z,1.64
2024-01-07T12:42:53.960Z,1.65
2024-01-07T12:43:53.859Z,1.65
2024-01-07T12:44:53.857Z,1.61
2024-01-07T12:45:53.882Z,1.57
2024-01-07T12:46:53.803Z,1.51
2024-01-07T12:47:53.932Z,1.47
2024-01-07T12:48:53.892Z,1.50
2024-01-07T12:49:53.823Z,1.47
2024-01-07T12:50:53.770Z,1.42
2024-01-07T12:51:53.794Z,1.40
2024-01-07T12:52:53.742Z,1.40
2024-01-07T12:53:53.724Z,1.40
2024-01-07T12:54:53.746Z,1.42
2024-01-07T12:55:53.704Z,1.42
2024-01-07T12:56:53.700Z,1.43
2024-01-07T12:57:53.692Z,1.47
2024-01-07T12:58:53.710Z,1.42
2024-01-07T12:59:53.656Z,1.42
2024-01-07T13:00:53.664Z,1.43
2024-01-07T13:01:53.787Z,1.39
2024-01-07T13:02:53.605Z,1.39
2024-01-07T13:03:53.986Z,1.39
2024-01-07T13:04:53.753Z,1.40
2024-01-07T13:05:53.788Z,1.40
2024-01-07T13:06:53.647Z,1.37
2024-01-07T13:07:53.578Z,1.32
2024-01-07T13:08:53.540Z,1.29
2024-01-07T13:09:53.548Z,1.25
2024-01-07T13:10:53.493Z,1.22
2024-01-07T13:11:53.508Z,1.18
2024-01-07T13:12:57.992Z,1.10
2024-01-07T13:13:54.503Z,1.10
2024-01-07T13:14:53.462Z,1.06
2024-01-07T13:15:53.523Z,1.03
2024-01-07T13:16:53.423Z,1.01
2024-01-07T13:17:53.449Z,1.00